createdAt,value
2017-12-30T00:00:28.877Z,99470.28
2017-12-30T00:02:56.408Z,99468.06
2017-12-30T00:05:23.852Z,99462.86
2017-12-30T00:07:51.321Z,99455.40
2017-12-30T00:10:18.776Z,99467.59
2017-12-30T00:12:46.261Z,99479.42
2017-12-30T00:15:13.709Z,99478.09
2017-12-30T00:17:41.180Z,99486.82
2017-12-30T00:20:08.628Z,99490.83
2017-12-30T00:22:36.110Z,99492.45
2017-12-30T00:25:03.579Z,99501.53
2017-12-30T00:27:31.062Z,99507.34
2017-12-30T00:29:58.516Z,99502.56
2017-12-30T00:32:25.968Z,99510.47
2017-12-30T00:34:53.442Z,99517.48
2017-12-30T00:37:21.017Z,99508.69
2017-12-30T00:39:48.487Z,99520.23
2017-12-30T00:42:15.932Z,99513.66
2017-12-30T00:44:43.406Z,99514.20
2017-12-30T00:47:10.872Z,99517.77
2017-12-30T00:49:38.344Z,99520.77
2017-12-30T00:52:05.793Z,99520.98
2017-12-30T00:54:33.268Z,99527.58
2017-12-30T00:57:00.720Z,99527.17
2017-12-30T00:59:28.220Z,99536.47
2017-12-30T01:01:55.721Z,99535.53
2017-12-30T01:04:23.173Z,99536.31
2017-12-30T01:06:50.683Z,99540.93
2017-12-30T01:09:18.125Z,99535.66
2017-12-30T01:11:45.587Z,99545.20
2017-12-30T01:14:13.030Z,99544.78
2017-12-30T01:16:40.504Z,99539.38
2017-12-30T01:19:07.934Z,99543.81
2017-12-30T01:21:35.475Z,99540.77
2017-12-30T01:24:02.926Z,99535.85
2017-12-30T01:26:30.406Z,99540.30
2017-12-30T01:28:57.946Z,99538.97
2017-12-30T01:31:25.401Z,99544.41
2017-12-30T01:33:52.827Z,99545.69
2017-12-30T01:36:20.360Z,99542.24
2017-12-30T01:38:47.786Z,99552.30
2017-12-30T01:41:15.240Z,99549.25
2017-12-30T01:43:42.673Z,99554.89
2017-12-30T01:46:10.187Z,99551.76
2017-12-30T01:48:49.474Z,99553.58
2017-12-30T01:51:16.988Z,99544.03
2017-12-30T01:53:44.446Z,99543.89
2017-12-30T01:56:11.891Z,99553.69
2017-12-30T01:58:39.459Z,99550.98
2017-12-30T02:01:06.909Z,99549.84
2017-12-30T02:03:34.371Z,99544.88
2017-12-30T02:06:02.030Z,99550.46
2017-12-30T02:08:29.515Z,99557.64
2017-12-30T02:10:56.993Z,99557.95
2017-12-30T02:13:24.452Z,99549.08
2017-12-30T02:15:51.877Z,99544.59
2017-12-30T02:18:19.349Z,99546.74
2017-12-30T02:20:46.786Z,99538.06
2017-12-30T02:23:14.251Z,99533.84
2017-12-30T02:25:41.778Z,99520.75
2017-12-30T02:28:09.230Z,99509.72
2017-12-30T02:30:36.657Z,99501.91
2017-12-30T02:33:04.131Z,99489.20
2017-12-30T02:35:31.618Z,99483.05
2017-12-30T02:37:59.066Z,99482.16
2017-12-30T02:40:26.537Z,99488.91
2017-12-30T02:42:53.978Z,99477.80
2017-12-30T02:45:21.439Z,99483.98
2017-12-30T02:47:48.910Z,99489.37
2017-12-30T02:50:16.388Z,99486.70
2017-12-30T02:52:43.855Z,99485.41
2017-12-30T02:55:11.306Z,99489.48
2017-12-30T02:57:38.742Z,99486.03
2017-12-30T03:00:06.202Z,99482.39
2017-12-30T03:02:33.638Z,99485.47
2017-12-30T03:05:01.095Z,99471.56
2017-12-30T03:07:28.526Z,99468.80
2017-12-30T03:09:55.998Z,99463.09
2017-12-30T03:12:23.489Z,99455.55
2017-12-30T03:14:50.942Z,99448.11
2017-12-30T03:17:18.402Z,99446.83
2017-12-30T03:19:45.837Z,99441.94
2017-12-30T03:22:13.356Z,99442.36
2017-12-30T03:24:40.766Z,99436.69
2017-12-30T03:27:08.295Z,99435.42
2017-12-30T03:29:35.736Z,99434.42
2017-12-30T03:32:03.213Z,99448.80
2017-12-30T03:34:30.671Z,99444.80
2017-12-30T03:36:58.127Z,99444.81
2017-12-30T03:39:25.566Z,99448.72
2017-12-30T03:41:53.022Z,99447.33
2017-12-30T03:44:20.457Z,99433.27
2017-12-30T03:46:47.926Z,99434.05
2017-12-30T03:49:15.379Z,99434.27
2017-12-30T03:51:42.813Z,99433.73
2017-12-30T03:54:10.276Z,99438.48
2017-12-30T03:56:37.718Z,99437.09
2017-12-30T03:59:05.169Z,99429.59
2017-12-30T04:01:32.614Z,99424.31
2017-12-30T04:04:00.071Z,99428.06
2017-12-30T04:06:27.510Z,99416.80
2017-12-30T04:08:54.975Z,99408.31
2017-12-30T04:11:22.512Z,99406.00
2017-12-30T04:13:50.010Z,99414.70
2017-12-30T04:16:17.546Z,99423.11
2017-12-30T04:18:45.082Z,99416.84
2017-12-30T04:21:12.522Z,99417.41
2017-12-30T04:23:40.005Z,99410.45
2017-12-30T04:26:07.457Z,99408.46
2017-12-30T04:28:35.002Z,99399.52
2017-12-30T04:31:02.426Z,99384.47
2017-12-30T04:33:29.881Z,99377.85
2017-12-30T04:35:57.407Z,99380.29
2017-12-30T04:38:24.871Z,99382.33
2017-12-30T04:40:52.309Z,99377.77
2017-12-30T04:43:19.778Z,99383.64
2017-12-30T04:45:47.242Z,99380.34
2017-12-30T04:48:14.703Z,99376.16
2017-12-30T04:50:42.167Z,99383.64
2017-12-30T04:53:09.632Z,99374.66
2017-12-30T04:55:37.108Z,99367.97
2017-12-30T04:58:04.539Z,99368.44
2017-12-30T05:00:32.022Z,99372.21
2017-12-30T05:02:59.508Z,99375.44
2017-12-30T05:05:27.019Z,99379.38
2017-12-30T05:07:54.457Z,99386.26
2017-12-30T05:10:21.933Z,99383.16
2017-12-30T05:12:49.466Z,99375.33
2017-12-30T05:15:16.935Z,99353.50
2017-12-30T05:17:44.383Z,99353.13
2017-12-30T05:20:11.899Z,99355.45
2017-12-30T05:22:39.359Z,99336.66
2017-12-30T05:25:06.803Z,99336.16
2017-12-30T05:27:34.276Z,99332.63
2017-12-30T05:30:01.722Z,99336.95
2017-12-30T05:32:29.173Z,99324.97
2017-12-30T05:34:56.605Z,99317.58
2017-12-30T05:37:24.115Z,99326.19
2017-12-30T05:39:51.579Z,99333.91
2017-12-30T05:42:19.117Z,99333.19
2017-12-30T05:44:46.555Z,99327.59
2017-12-30T05:47:14.027Z,99329.73
2017-12-30T05:49:41.459Z,99331.07
2017-12-30T05:52:08.918Z,99322.15
2017-12-30T05:54:36.391Z,99305.90
2017-12-30T05:57:03.850Z,99299.00
2017-12-30T05:59:32.212Z,99304.11
2017-12-30T06:01:59.675Z,99317.77
2017-12-30T06:04:27.112Z,99319.81
2017-12-30T06:06:54.863Z,99314.89
2017-12-30T06:09:22.333Z,99306.50
2017-12-30T06:11:49.794Z,99319.10
2017-12-30T06:14:17.329Z,99313.12
2017-12-30T06:16:44.770Z,99322.61
2017-12-30T06:19:12.228Z,99331.27
2017-12-30T06:21:39.684Z,99337.98
2017-12-30T06:24:07.154Z,99343.20
2017-12-30T06:26:34.590Z,99344.13
2017-12-30T06:29:02.050Z,99317.83
2017-12-30T06:31:29.503Z,99306.50
2017-12-30T06:33:57.046Z,99295.07
2017-12-30T06:36:24.520Z,99297.38
2017-12-30T06:38:51.962Z,99293.18
2017-12-30T06:41:19.428Z,99293.55
2017-12-30T06:43:46.861Z,99294.38
2017-12-30T06:46:14.319Z,99274.33
2017-12-30T06:48:41.765Z,99271.53
2017-12-30T06:51:09.217Z,99255.59
2017-12-30T06:53:36.645Z,99239.95
2017-12-30T06:56:04.104Z,99248.38
2017-12-30T06:58:31.545Z,99258.45
2017-12-30T07:00:59.094Z,99237.72
2017-12-30T07:03:26.567Z,99234.40
2017-12-30T07:05:54.067Z,99224.00
2017-12-30T07:08:21.493Z,99213.08
2017-12-30T07:10:48.950Z,99205.30
2017-12-30T07:13:16.386Z,99215.37
2017-12-30T07:15:43.834Z,99201.17
2017-12-30T07:18:11.510Z,99202.20
2017-12-30T07:20:39.010Z,99184.98
2017-12-30T07:23:06.458Z,99187.41
2017-12-30T07:25:33.928Z,99178.30
2017-12-30T07:28:01.395Z,99177.73
2017-12-30T07:30:29.753Z,99179.42
2017-12-30T07:32:57.218Z,99176.28
2017-12-30T07:35:24.663Z,99181.09
2017-12-30T07:37:52.118Z,99177.63
2017-12-30T07:40:19.555Z,99169.53
2017-12-30T07:42:47.009Z,99161.78
2017-12-30T07:45:14.458Z,99163.28
2017-12-30T07:47:41.922Z,99153.73
2017-12-30T07:50:09.412Z,99154.46
2017-12-30T07:52:36.888Z,99148.45
2017-12-30T07:55:04.323Z,99140.98
2017-12-30T07:57:31.791Z,99139.83
2017-12-30T07:59:59.224Z,99143.41
2017-12-30T08:02:26.653Z,99131.50
2017-12-30T08:04:54.109Z,99126.00
2017-12-30T08:07:21.542Z,99126.41
2017-12-30T08:09:48.989Z,99124.03
2017-12-30T08:12:16.445Z,99118.86
2017-12-30T08:14:43.918Z,99110.89
2017-12-30T08:17:11.352Z,99105.12
2017-12-30T08:19:38.817Z,99097.34
2017-12-30T08:24:40.186Z,99097.69
2017-12-30T08:27:07.659Z,99091.21
2017-12-30T08:29:35.122Z,99078.70
2017-12-30T08:32:02.639Z,99080.15
2017-12-30T08:34:30.123Z,99078.75
2017-12-30T08:36:57.566Z,99073.89
2017-12-30T08:39:25.022Z,99068.17
2017-12-30T08:41:52.478Z,99058.52
2017-12-30T08:44:19.901Z,99054.94
2017-12-30T08:46:47.462Z,99050.23
2017-12-30T08:49:14.980Z,99037.76
2017-12-30T08:51:42.444Z,99039.78
2017-12-30T08:54:09.883Z,99052.78
2017-12-30T08:56:37.347Z,99043.92
2017-12-30T08:59:04.777Z,99036.13
2017-12-30T09:01:32.234Z,99034.43
2017-12-30T09:03:59.753Z,99035.68
2017-12-30T09:06:27.230Z,99034.45
2017-12-30T09:08:54.694Z,99035.13
2017-12-30T09:11:22.171Z,99034.30
2017-12-30T09:13:49.629Z,99038.59
2017-12-30T09:16:17.054Z,99029.38
2017-12-30T09:18:44.607Z,99021.57
2017-12-30T09:21:12.011Z,99021.66
2017-12-30T09:23:39.515Z,99015.45
2017-12-30T09:26:06.950Z,99013.71
2017-12-30T09:28:34.417Z,99018.27
2017-12-30T09:31:01.891Z,99004.20
2017-12-30T09:33:29.337Z,99000.14
2017-12-30T09:35:56.770Z,99009.33
2017-12-30T09:38:24.234Z,98999.06
2017-12-30T09:40:51.675Z,98995.69
2017-12-30T09:43:19.157Z,98988.34
2017-12-30T09:45:46.610Z,98981.91
2017-12-30T09:48:14.066Z,98973.84
2017-12-30T09:50:41.530Z,98958.09
2017-12-30T09:53:08.975Z,98967.26
2017-12-30T09:55:36.435Z,98964.86
2017-12-30T09:58:03.876Z,98957.00
2017-12-30T10:00:31.337Z,98950.90
2017-12-30T10:03:00.310Z,98955.56
2017-12-30T10:05:27.873Z,98948.16
2017-12-30T10:07:55.318Z,98945.67
2017-12-30T10:10:22.782Z,98944.11
2017-12-30T10:12:50.210Z,98947.41
2017-12-30T10:15:17.681Z,98946.35
2017-12-30T10:17:45.113Z,98947.11
2017-12-30T10:20:12.574Z,98947.30
2017-12-30T10:22:40.027Z,98934.34
2017-12-30T10:25:07.828Z,98950.16
2017-12-30T10:27:35.290Z,98941.67
2017-12-30T10:30:02.805Z,98940.17
2017-12-30T10:32:33.103Z,98957.34
2017-12-30T10:35:00.558Z,98947.61
2017-12-30T10:37:28.021Z,98957.80
2017-12-30T10:39:55.465Z,98955.71
2017-12-30T10:42:22.922Z,98940.20
2017-12-30T10:44:50.371Z,98926.48
2017-12-30T10:47:17.854Z,98923.88
2017-12-30T10:49:45.294Z,98906.13
2017-12-30T10:52:12.806Z,98893.41
2017-12-30T10:54:40.246Z,98892.16
2017-12-30T10:57:07.800Z,98909.28
2017-12-30T10:59:35.235Z,98906.71
2017-12-30T11:02:02.678Z,98906.38
2017-12-30T11:04:30.132Z,98902.07
2017-12-30T11:06:57.612Z,98890.02
2017-12-30T11:09:25.072Z,98885.06
2017-12-30T11:11:52.527Z,98880.48
2017-12-30T11:14:19.988Z,98882.45
2017-12-30T11:16:47.526Z,98887.09
2017-12-30T11:19:15.243Z,98878.09
2017-12-30T11:21:42.678Z,98874.03
2017-12-30T11:24:10.211Z,98875.29
2017-12-30T11:26:37.682Z,98883.20
2017-12-30T11:29:05.158Z,98862.09
2017-12-30T11:31:32.611Z,98859.27
2017-12-30T11:34:00.062Z,98869.81
2017-12-30T11:36:27.605Z,98846.16
2017-12-30T11:38:55.189Z,98851.50
2017-12-30T11:41:22.700Z,98872.66
2017-12-30T11:43:50.133Z,98875.48
2017-12-30T11:46:17.603Z,98861.17
2017-12-30T11:48:45.039Z,98880.31
2017-12-30T11:51:12.500Z,98872.27
2017-12-30T11:53:39.933Z,98884.84
2017-12-30T11:56:07.392Z,98895.57
2017-12-30T11:58:34.820Z,98901.40
2017-12-30T12:01:02.278Z,98902.11
2017-12-30T12:03:29.705Z,98883.11
2017-12-30T12:05:57.176Z,98884.94
2017-12-30T12:08:24.632Z,98891.19
2017-12-30T12:10:52.124Z,98889.63
2017-12-30T12:13:19.646Z,98899.61
2017-12-30T12:15:47.115Z,98902.65
2017-12-30T12:18:14.578Z,98910.25
2017-12-30T12:20:42.114Z,98911.56
2017-12-30T12:23:09.674Z,98917.06
2017-12-30T12:25:37.114Z,98901.39
2017-12-30T12:28:04.578Z,98905.17
2017-12-30T12:30:32.023Z,98903.73
2017-12-30T12:32:59.486Z,98886.57
2017-12-30T12:35:26.917Z,98902.38
2017-12-30T12:37:54.373Z,98928.77
2017-12-30T12:40:21.804Z,98935.05
2017-12-30T12:42:49.266Z,98944.05
2017-12-30T12:45:16.726Z,98938.09
2017-12-30T12:47:44.238Z,98925.39
2017-12-30T12:50:11.814Z,98913.08
2017-12-30T12:52:39.382Z,98913.73
2017-12-30T12:55:06.840Z,98919.55
2017-12-30T12:57:34.273Z,98917.98
2017-12-30T13:00:01.739Z,98931.45
2017-12-30T13:02:29.327Z,98927.55
2017-12-30T13:04:56.791Z,98926.91
2017-12-30T13:07:24.341Z,98929.73
2017-12-30T13:09:51.862Z,98921.63
2017-12-30T13:12:19.301Z,98930.08
2017-12-30T13:14:46.770Z,98924.51
2017-12-30T13:17:14.215Z,98923.48
2017-12-30T13:19:41.687Z,98907.39
2017-12-30T13:22:09.123Z,98913.31
2017-12-30T13:24:36.586Z,98919.48
2017-12-30T13:27:04.032Z,98933.64
2017-12-30T13:29:31.568Z,98942.39
2017-12-30T13:31:59.094Z,98953.41
2017-12-30T13:34:26.557Z,98959.72
2017-12-30T13:36:54.001Z,98943.19
2017-12-30T13:39:21.494Z,98947.70
2017-12-30T13:41:48.961Z,98953.66
2017-12-30T13:44:16.454Z,98965.80
2017-12-30T13:46:43.933Z,98966.88
2017-12-30T13:49:11.378Z,98969.95
2017-12-30T13:51:39.007Z,98985.15
2017-12-30T13:54:06.474Z,98989.41
2017-12-30T13:56:34.074Z,98987.20
2017-12-30T13:59:01.557Z,98981.36
2017-12-30T14:01:29.022Z,98975.02
2017-12-30T14:03:56.474Z,98970.28
2017-12-30T14:06:23.957Z,98975.52
2017-12-30T14:08:51.417Z,98983.48
2017-12-30T14:11:18.913Z,99005.03
2017-12-30T14:13:46.352Z,99014.31
2017-12-30T14:16:13.818Z,99014.00
2017-12-30T14:18:41.268Z,99013.91
2017-12-30T14:21:08.769Z,99037.04
2017-12-30T14:23:36.309Z,99040.35
2017-12-30T14:26:04.379Z,99035.77
2017-12-30T14:28:31.895Z,99021.73
2017-12-30T14:30:59.329Z,99040.40
2017-12-30T14:33:26.815Z,99044.92
2017-12-30T14:35:54.262Z,99056.63
2017-12-30T14:38:21.745Z,99056.27
2017-12-30T14:40:49.309Z,99067.00
2017-12-30T14:43:17.090Z,99063.92
2017-12-30T14:45:44.746Z,99049.56
2017-12-30T14:48:12.230Z,99064.13
2017-12-30T14:50:39.682Z,99061.75
2017-12-30T14:53:07.151Z,99084.22
2017-12-30T14:55:34.629Z,99072.54
2017-12-30T14:58:02.094Z,99087.55
2017-12-30T15:00:29.555Z,99071.55
2017-12-30T15:02:56.995Z,99075.55
2017-12-30T15:05:24.521Z,99091.12
2017-12-30T15:07:51.971Z,99091.98
2017-12-30T15:10:19.502Z,99084.98
2017-12-30T15:12:47.095Z,99106.51
2017-12-30T15:15:14.564Z,99097.84
2017-12-30T15:17:42.068Z,99110.83
2017-12-30T15:20:09.530Z,99108.42
2017-12-30T15:22:36.978Z,99114.59
2017-12-30T15:25:04.433Z,99112.66
2017-12-30T15:27:31.881Z,99108.06
2017-12-30T15:29:59.355Z,99112.78
2017-12-30T15:32:26.830Z,99108.74
2017-12-30T15:34:54.291Z,99111.06
2017-12-30T15:37:21.806Z,99099.42
2017-12-30T15:39:49.263Z,99094.48
2017-12-30T15:42:16.723Z,99099.00
2017-12-30T15:44:44.190Z,99108.66
2017-12-30T15:47:11.699Z,99124.48
2017-12-30T15:49:39.174Z,99129.66
2017-12-30T15:52:06.705Z,99132.55
2017-12-30T15:54:34.217Z,99144.41
2017-12-30T15:57:01.694Z,99163.23
2017-12-30T15:59:29.175Z,99162.77
2017-12-30T16:01:56.637Z,99153.08
2017-12-30T16:04:24.138Z,99158.20
2017-12-30T16:06:51.626Z,99150.67
2017-12-30T16:09:19.229Z,99146.02
2017-12-30T16:11:46.669Z,99143.30
2017-12-30T16:14:14.164Z,99170.78
2017-12-30T16:16:41.611Z,99173.66
2017-12-30T16:19:09.186Z,99184.04
2017-12-30T16:21:36.658Z,99185.29
2017-12-30T16:24:04.130Z,99200.19
2017-12-30T16:26:31.586Z,99209.82
2017-12-30T16:28:59.049Z,99190.30
2017-12-30T16:31:26.490Z,99206.08
2017-12-30T16:33:55.403Z,99212.23
2017-12-30T16:36:22.860Z,99219.28
2017-12-30T16:38:50.326Z,99228.23
2017-12-30T16:41:17.848Z,99226.89
2017-12-30T16:43:45.326Z,99234.89
2017-12-30T16:46:12.793Z,99243.58
2017-12-30T16:48:40.276Z,99243.91
2017-12-30T16:51:07.738Z,99247.88
2017-12-30T16:53:35.196Z,99254.33
2017-12-30T16:56:02.727Z,99253.17
2017-12-30T16:58:30.199Z,99261.34
2017-12-30T17:00:57.686Z,99266.31
2017-12-30T17:03:25.136Z,99279.96
2017-12-30T17:05:52.614Z,99272.64
2017-12-30T17:08:20.063Z,99274.88
2017-12-30T17:10:47.578Z,99294.36
2017-12-30T17:13:15.030Z,99300.00
2017-12-30T17:15:42.557Z,99306.10
2017-12-30T17:18:10.033Z,99288.02
2017-12-30T17:20:37.535Z,99285.03
2017-12-30T17:23:04.992Z,99300.77
2017-12-30T17:25:32.453Z,99295.61
2017-12-30T17:27:59.940Z,99293.14
2017-12-30T17:30:27.424Z,99301.41
2017-12-30T17:32:54.902Z,99309.88
2017-12-30T17:35:22.358Z,99312.25
2017-12-30T17:37:49.891Z,99313.28
2017-12-30T17:40:17.397Z,99310.57
2017-12-30T17:42:44.849Z,99311.38
2017-12-30T17:45:12.291Z,99320.80
2017-12-30T17:47:39.762Z,99326.66
2017-12-30T17:50:07.197Z,99333.45
2017-12-30T17:52:34.658Z,99324.81
2017-12-30T17:55:02.140Z,99335.61
2017-12-30T17:57:29.623Z,99333.23
2017-12-30T17:59:57.073Z,99330.70
2017-12-30T18:02:24.514Z,99329.70
2017-12-30T18:04:51.983Z,99327.52
2017-12-30T18:07:19.498Z,99315.80
2017-12-30T18:09:46.977Z,99323.72
2017-12-30T18:12:14.539Z,99320.03
2017-12-30T18:14:42.022Z,99325.05
2017-12-30T18:17:09.478Z,99322.87
2017-12-30T18:19:36.937Z,99329.87
2017-12-30T18:22:04.723Z,99321.64
2017-12-30T18:24:32.328Z,99325.78
2017-12-30T18:26:59.770Z,99329.41
2017-12-30T18:29:27.241Z,99333.44
2017-12-30T18:31:54.681Z,99344.45
2017-12-30T18:34:22.257Z,99345.13
2017-12-30T18:36:49.699Z,99356.13
2017-12-30T18:39:17.166Z,99356.78
2017-12-30T18:41:44.626Z,99362.98
2017-12-30T18:44:12.062Z,99375.01
2017-12-30T18:46:39.534Z,99378.56
2017-12-30T18:49:06.978Z,99374.09
2017-12-30T18:51:34.434Z,99375.63
2017-12-30T18:54:01.895Z,99380.65
2017-12-30T18:56:29.351Z,99370.84
2017-12-30T18:58:56.873Z,99372.26
2017-12-30T19:01:24.325Z,99372.09
2017-12-30T19:03:51.855Z,99370.23
2017-12-30T19:06:19.322Z,99367.70
2017-12-30T19:08:46.758Z,99366.45
2017-12-30T19:11:14.222Z,99361.63
2017-12-30T19:13:41.663Z,99373.77
2017-12-30T19:16:09.139Z,99374.84
2017-12-30T19:18:36.582Z,99370.11
2017-12-30T19:21:04.019Z,99366.84
2017-12-30T19:23:31.488Z,99361.33
2017-12-30T19:25:58.927Z,99354.27
2017-12-30T19:28:26.387Z,99339.78
2017-12-30T19:30:53.827Z,99342.56
2017-12-30T19:33:21.323Z,99353.97
2017-12-30T19:35:48.770Z,99365.42
2017-12-30T19:38:16.329Z,99363.56
2017-12-30T19:40:43.838Z,99363.61
2017-12-30T19:43:11.319Z,99364.25
2017-12-30T19:45:38.767Z,99353.88
2017-12-30T19:48:06.257Z,99362.92
2017-12-30T19:50:33.698Z,99353.02
2017-12-30T19:53:01.157Z,99355.39
2017-12-30T19:55:28.606Z,99355.17
2017-12-30T19:57:56.067Z,99353.28
2017-12-30T20:00:23.514Z,99342.19
2017-12-30T20:02:51.296Z,99353.20
2017-12-30T20:05:18.861Z,99349.80
2017-12-30T20:07:46.364Z,99355.02
2017-12-30T20:10:13.914Z,99361.89
2017-12-30T20:12:41.437Z,99367.83
2017-12-30T20:15:08.998Z,99374.59
2017-12-30T20:17:36.504Z,99379.36
2017-12-30T20:20:03.976Z,99374.33
2017-12-30T20:22:31.423Z,99388.44
2017-12-30T20:24:58.882Z,99389.26
2017-12-30T20:27:26.338Z,99403.23
2017-12-30T20:29:53.831Z,99401.00
2017-12-30T20:32:21.282Z,99409.91
2017-12-30T20:34:48.743Z,99415.20
2017-12-30T20:37:16.188Z,99419.02
2017-12-30T20:39:43.643Z,99426.12
2017-12-30T20:42:11.078Z,99440.64
2017-12-30T20:44:38.555Z,99437.13
2017-12-30T20:47:06.026Z,99442.40
2017-12-30T20:49:33.489Z,99443.59
2017-12-30T20:52:00.982Z,99443.90
2017-12-30T20:54:28.452Z,99444.86
2017-12-30T20:56:55.919Z,99445.06
2017-12-30T20:59:23.391Z,99454.38
2017-12-30T21:01:50.929Z,99451.63
2017-12-30T21:04:18.375Z,99447.95
2017-12-30T21:06:45.835Z,99453.31
2017-12-30T21:09:13.343Z,99455.68
2017-12-30T21:11:40.907Z,99466.10
2017-12-30T21:14:08.342Z,99479.30
2017-12-30T21:16:35.971Z,99487.77
2017-12-30T21:19:03.420Z,99484.39
2017-12-30T21:21:30.886Z,99495.73
2017-12-30T21:23:58.325Z,99504.27
2017-12-30T21:26:25.786Z,99500.01
2017-12-30T21:28:53.241Z,99500.22
2017-12-30T21:31:20.683Z,99504.49
2017-12-30T21:33:48.209Z,99501.05
2017-12-30T21:36:15.671Z,99492.68
2017-12-30T21:38:43.145Z,99502.66
2017-12-30T21:41:10.618Z,99507.70
2017-12-30T21:43:38.094Z,99521.20
2017-12-30T21:46:05.533Z,99516.72
2017-12-30T21:48:33.107Z,99505.00
2017-12-30T21:51:00.550Z,99513.95
2017-12-30T21:53:28.030Z,99516.59
2017-12-30T21:55:55.503Z,99521.45
2017-12-30T21:58:22.978Z,99527.98
2017-12-30T22:00:50.434Z,99525.12
2017-12-30T22:03:17.985Z,99525.46
2017-12-30T22:05:45.422Z,99532.83
2017-12-30T22:08:12.965Z,99537.26
2017-12-30T22:10:40.412Z,99546.48
2017-12-30T22:13:07.931Z,99536.94
2017-12-30T22:15:35.375Z,99536.36
2017-12-30T22:18:02.839Z,99541.42
2017-12-30T22:20:30.298Z,99540.69
2017-12-30T22:22:57.748Z,99546.09
2017-12-30T22:25:25.214Z,99543.44
2017-12-30T22:27:52.664Z,99554.77
2017-12-30T22:30:20.117Z,99557.34
2017-12-30T22:32:47.555Z,99567.94
2017-12-30T22:35:15.010Z,99565.91
2017-12-30T22:37:42.450Z,99565.78
2017-12-30T22:40:09.917Z,99573.80
2017-12-30T22:42:37.356Z,99576.12
2017-12-30T22:45:04.809Z,99591.31
2017-12-30T22:47:32.242Z,99583.39
2017-12-30T22:49:59.771Z,99582.87
2017-12-30T22:52:27.207Z,99575.65
2017-12-30T22:54:54.671Z,99579.23
2017-12-30T22:57:22.127Z,99584.12
2017-12-30T22:59:49.590Z,99582.11
2017-12-30T23:02:17.051Z,99586.69
2017-12-30T23:04:44.565Z,99582.09
2017-12-30T23:07:12.078Z,99586.76
2017-12-30T23:09:39.505Z,99607.02
2017-12-30T23:12:07.010Z,99612.31
2017-12-30T23:14:34.450Z,99615.43
2017-12-30T23:17:01.922Z,99622.11
2017-12-30T23:19:29.405Z,99629.90
2017-12-30T23:21:56.894Z,99624.06
2017-12-30T23:24:24.368Z,99623.16
2017-12-30T23:26:51.979Z,99631.37
2017-12-30T23:29:19.423Z,99632.41
2017-12-30T23:31:46.885Z,99642.63
2017-12-30T23:34:14.394Z,99642.95
2017-12-30T23:36:41.844Z,99649.65
2017-12-30T23:39:09.311Z,99647.48
2017-12-30T23:41:36.745Z,99643.27
2017-12-30T23:44:04.202Z,99641.84
2017-12-30T23:46:31.656Z,99645.24
2017-12-30T23:48:59.136Z,99642.89
2017-12-30T23:51:26.581Z,99641.83
2017-12-30T23:53:54.113Z,99639.89
2017-12-30T23:56:21.561Z,99655.08
2017-12-30T23:58:49.065Z,99659.77
